Time;durP1;ratioP1;P1;durP2;ratioP2;P2;SDS_P1;SDS_P2;PMS_P1;PMS_P2;Temp;Humidity;BMP_temperature;BMP_pressure;BME280_temperature;BME280_humidity;BME280_pressure;Samples;Min_cycle;Max_cycle;Signal;HPM_P1;HPM_P2
2022/04/18 00:02:24;;;;;;;4.35;2.60;;;;;;;;;;5005038;28;20026;-72
2022/04/18 00:05:09;;;;;;;5.82;3.33;;;;;;;;;;4976810;28;20039;-73
2022/04/18 00:07:55;;;;;;;6.85;3.00;;;;;;;;;;4972043;28;20084;-73
2022/04/18 00:10:40;;;;;;;7.25;2.83;;;;;;;;;;4981176;28;20057;-71
2022/04/18 00:13:25;;;;;;;6.00;2.90;;;;;;;;;;4975665;28;20077;-68
2022/04/18 00:16:10;;;;;;;7.47;3.17;;;;;;;;;;5004698;28;20026;-69
2022/04/18 00:18:56;;;;;;;5.35;3.25;;;;;;;;;;5010040;28;20481;-69
2022/04/18 00:21:41;;;;;;;5.90;2.90;;;;;;;;;;4982385;28;20030;-72
2022/04/18 00:24:26;;;;;;;5.57;2.90;;;;;;;;;;4971109;28;20540;-69
2022/04/18 00:27:11;;;;;;;4.97;2.58;;;;;;;;;;4992627;28;20504;-78
2022/04/18 00:29:57;;;;;;;6.18;2.67;;;;;;;;;;4973400;28;20065;-73
2022/04/18 00:32:42;;;;;;;8.27;3.22;;;;;;;;;;4989598;28;20041;-72
2022/04/18 00:35:27;;;;;;;5.78;3.05;;;;;;;;;;4970960;28;20073;-73
2022/04/18 00:38:12;;;;;;;5.60;2.80;;;;;;;;;;4999073;28;20034;-72
2022/04/18 00:40:58;;;;;;;8.63;3.88;;;;;;;;;;4983068;28;20037;-73
2022/04/18 00:43:45;;;;;;;8.57;3.13;;;;;;;;;;4969515;28;20178;-74
2022/04/18 00:46:30;;;;;;;8.30;3.40;;;;;;;;;;5002687;28;20156;-70
2022/04/18 00:49:15;;;;;;;5.45;2.75;;;;;;;;;;5009084;28;20115;-70
2022/04/18 00:52:03;;;;;;;6.63;2.75;;;;;;;;;;4977462;28;20022;-72
2022/04/18 00:54:50;;;;;;;5.88;3.30;;;;;;;;;;4971530;28;20030;-70
2022/04/18 00:57:35;;;;;;;5.18;2.95;;;;;;;;;;4983812;28;20062;-70
2022/04/18 01:00:21;;;;;;;7.63;3.05;;;;;;;;;;4967661;28;20401;-73
2022/04/18 01:03:06;;;;;;;6.20;2.63;;;;;;;;;;5009003;28;20587;-73
2022/04/18 01:05:51;;;;;;;6.57;3.22;;;;;;;;;;5010353;28;20101;-73
2022/04/18 01:08:37;;;;;;;7.45;2.92;;;;;;;;;;4991541;28;20022;-74
2022/04/18 01:11:22;;;;;;;6.30;3.33;;;;;;;;;;4990230;28;20037;-71
2022/04/18 01:14:08;;;;;;;4.80;3.28;;;;;;;;;;5012012;28;20056;-73
2022/04/18 01:16:53;;;;;;;7.72;3.10;;;;;;;;;;4971038;28;20109;-76
2022/04/18 01:19:38;;;;;;;5.13;3.25;;;;;;;;;;4983801;28;20038;-72
2022/04/18 01:22:23;;;;;;;5.20;2.63;;;;;;;;;;4972024;28;20082;-71
2022/04/18 01:31:17;;;;;;;7.03;3.05;;;;;;;;;;4986026;28;20034;-76
2022/04/18 01:34:03;;;;;;;4.78;2.65;;;;;;;;;;4990257;28;20037;-78
2022/04/18 01:36:48;;;;;;;6.07;3.08;;;;;;;;;;4990006;28;20053;-78
2022/04/18 01:39:34;;;;;;;5.00;2.72;;;;;;;;;;4994371;28;20026;-73
2022/04/18 01:42:19;;;;;;;7.15;3.15;;;;;;;;;;4989640;28;20077;-69
2022/04/18 01:45:05;;;;;;;6.28;2.80;;;;;;;;;;4976605;28;20371;-70
2022/04/18 01:47:50;;;;;;;6.25;2.90;;;;;;;;;;4993097;28;20474;-70
2022/04/18 01:50:36;;;;;;;6.72;2.83;;;;;;;;;;5002649;28;20030;-71
2022/04/18 01:53:21;;;;;;;8.65;3.33;;;;;;;;;;4976047;28;20401;-71
2022/04/18 01:56:06;;;;;;;6.13;2.92;;;;;;;;;;4994929;28;20441;-69
2022/04/18 01:58:52;;;;;;;6.57;2.85;;;;;;;;;;4981280;28;20062;-72
2022/04/18 02:01:37;;;;;;;6.53;3.53;;;;;;;;;;4999762;28;20022;-74
2022/04/18 02:04:23;;;;;;;5.90;2.70;;;;;;;;;;4975465;28;20031;-73
2022/04/18 02:07:10;;;;;;;5.78;2.90;;;;;;;;;;4982536;28;20300;-72
2022/04/18 02:09:55;;;;;;;5.10;3.15;;;;;;;;;;4983760;28;20037;-73
2022/04/18 02:12:40;;;;;;;7.60;2.65;;;;;;;;;;4970277;28;20097;-73
2022/04/18 02:15:26;;;;;;;7.28;3.03;;;;;;;;;;4993879;28;20429;-73
2022/04/18 02:18:11;;;;;;;8.27;3.00;;;;;;;;;;4973680;28;20086;-74
2022/04/18 02:20:56;;;;;;;5.68;3.00;;;;;;;;;;4955896;28;20406;-75
2022/04/18 02:23:42;;;;;;;4.90;3.10;;;;;;;;;;4952822;28;20050;-77
2022/04/18 02:26:27;;;;;;;7.22;3.00;;;;;;;;;;4949815;28;20023;-75
2022/04/18 02:29:12;;;;;;;4.60;2.90;;;;;;;;;;4949341;29;20039;-77
2022/04/18 02:35:02;;;;;;;7.35;3.13;;;;;;;;;;4982883;28;20082;-69
2022/04/18 02:37:47;;;;;;;5.05;2.85;;;;;;;;;;4942773;28;20046;-70
2022/04/18 02:40:32;;;;;;;4.95;2.85;;;;;;;;;;4985280;28;20046;-73
2022/04/18 02:43:17;;;;;;;7.25;3.55;;;;;;;;;;4956307;28;20047;-70
2022/04/18 02:46:03;;;;;;;6.32;3.08;;;;;;;;;;4954152;29;20486;-72
2022/04/18 02:48:49;;;;;;;5.72;3.38;;;;;;;;;;4967432;28;20114;-70
2022/04/18 02:51:34;;;;;;;6.78;3.63;;;;;;;;;;4966024;28;20360;-72
2022/04/18 02:54:19;;;;;;;7.68;3.03;;;;;;;;;;4983218;28;20194;-72
2022/04/18 02:57:04;;;;;;;6.72;2.60;;;;;;;;;;4980844;28;20019;-73
2022/04/18 02:59:50;;;;;;;6.13;3.22;;;;;;;;;;4957689;28;20023;-70
2022/04/18 03:02:36;;;;;;;5.15;3.05;;;;;;;;;;4929315;28;20035;-72
2022/04/18 03:05:21;;;;;;;4.50;2.92;;;;;;;;;;4973323;28;20466;-70
2022/04/18 03:08:07;;;;;;;4.63;3.00;;;;;;;;;;4967922;28;20030;-70
2022/04/18 03:11:08;;;;;;;6.85;3.50;;;;;;;;;;4970586;28;20037;-71
2022/04/18 03:13:55;;;;;;;5.50;3.15;;;;;;;;;;4966607;28;20482;-69
2022/04/18 03:16:40;;;;;;;6.20;3.40;;;;;;;;;;4934555;29;20030;-70
2022/04/18 03:19:26;;;;;;;4.60;2.80;;;;;;;;;;4981457;28;20050;-70
2022/04/18 03:22:11;;;;;;;4.93;2.70;;;;;;;;;;4977110;28;20438;-70
2022/04/18 03:24:56;;;;;;;7.90;3.20;;;;;;;;;;5021622;28;20385;-69
2022/04/18 03:27:41;;;;;;;5.20;3.13;;;;;;;;;;4990952;28;20089;-72
2022/04/18 03:30:27;;;;;;;8.00;2.53;;;;;;;;;;4972455;28;20413;-69
2022/04/18 03:33:12;;;;;;;3.92;3.10;;;;;;;;;;4972442;28;20027;-76
2022/04/18 03:42:08;;;;;;;5.28;3.42;;;;;;;;;;5002675;28;20023;-74
2022/04/18 03:44:53;;;;;;;4.95;3.10;;;;;;;;;;4995516;28;20128;-72
2022/04/18 03:47:38;;;;;;;6.13;2.78;;;;;;;;;;4988947;28;20054;-71
2022/04/18 03:50:23;;;;;;;4.60;3.17;;;;;;;;;;4991938;28;20065;-72
2022/04/18 03:53:08;;;;;;;6.38;3.53;;;;;;;;;;4992251;28;20030;-70
2022/04/18 03:55:54;;;;;;;6.13;3.63;;;;;;;;;;5006157;28;20041;-71
2022/04/18 03:58:39;;;;;;;5.05;3.00;;;;;;;;;;4980296;28;20065;-70
2022/04/18 04:01:24;;;;;;;5.35;3.45;;;;;;;;;;5002550;28;20065;-74
2022/04/18 04:04:09;;;;;;;6.50;2.90;;;;;;;;;;5003219;28;20401;-72
2022/04/18 04:06:55;;;;;;;5.80;3.63;;;;;;;;;;4991961;28;20026;-74
2022/04/18 04:09:40;;;;;;;6.80;3.42;;;;;;;;;;4972504;28;20027;-70
2022/04/18 04:12:26;;;;;;;4.72;3.10;;;;;;;;;;4985812;28;20069;-72
2022/04/18 04:15:11;;;;;;;5.65;3.22;;;;;;;;;;4993199;28;20153;-69
2022/04/18 04:17:56;;;;;;;6.10;3.00;;;;;;;;;;5005035;28;20469;-69
2022/04/18 04:20:42;;;;;;;5.38;3.08;;;;;;;;;;4994485;28;20041;-70
2022/04/18 04:23:27;;;;;;;4.72;3.20;;;;;;;;;;5005762;28;20030;-69
2022/04/18 04:26:13;;;;;;;4.70;3.70;;;;;;;;;;5011650;28;20033;-70
2022/04/18 04:28:58;;;;;;;6.03;3.38;;;;;;;;;;4962775;28;20066;-73
2022/04/18 04:31:43;;;;;;;8.77;3.78;;;;;;;;;;4991421;28;20481;-71
2022/04/18 04:34:29;;;;;;;4.72;3.03;;;;;;;;;;5010948;28;20030;-71
2022/04/18 04:37:14;;;;;;;6.72;3.28;;;;;;;;;;4997813;28;20084;-70
2022/04/18 04:39:59;;;;;;;5.63;3.03;;;;;;;;;;4972386;28;20565;-71
2022/04/18 04:42:44;;;;;;;5.75;3.65;;;;;;;;;;5017792;28;20128;-71
2022/04/18 04:45:31;;;;;;;7.03;3.65;;;;;;;;;;5004003;28;20022;-70
2022/04/18 04:48:16;;;;;;;8.32;3.28;;;;;;;;;;4995661;28;20524;-71
2022/04/18 04:51:01;;;;;;;4.90;3.08;;;;;;;;;;5004488;28;20045;-74
2022/04/18 04:53:47;;;;;;;6.93;3.40;;;;;;;;;;4984762;28;20023;-70
2022/04/18 04:56:32;;;;;;;9.45;3.65;;;;;;;;;;4971124;28;20440;-70
2022/04/18 04:59:18;;;;;;;6.18;3.05;;;;;;;;;;4973223;28;20117;-70
2022/04/18 05:02:05;;;;;;;8.45;3.55;;;;;;;;;;5003538;28;20045;-70
2022/04/18 05:04:51;;;;;;;6.40;3.50;;;;;;;;;;4990287;28;20058;-73
2022/04/18 05:07:36;;;;;;;6.35;3.85;;;;;;;;;;4981773;28;20113;-70
2022/04/18 05:10:21;;;;;;;5.97;3.55;;;;;;;;;;4983110;28;20038;-73
2022/04/18 05:13:07;;;;;;;6.65;4.07;;;;;;;;;;4997475;28;20061;-72
2022/04/18 05:15:52;;;;;;;6.55;3.58;;;;;;;;;;4996370;28;20093;-71
2022/04/18 05:18:37;;;;;;;7.70;4.13;;;;;;;;;;4968822;28;20019;-72
2022/04/18 05:21:23;;;;;;;7.03;3.42;;;;;;;;;;4995837;28;20038;-70
2022/04/18 05:24:08;;;;;;;6.28;3.80;;;;;;;;;;4986738;28;20492;-72
2022/04/18 05:26:54;;;;;;;5.88;3.75;;;;;;;;;;5009748;28;20022;-71
2022/04/18 05:29:39;;;;;;;6.93;3.45;;;;;;;;;;4993087;28;20056;-70
2022/04/18 05:32:24;;;;;;;5.25;3.30;;;;;;;;;;4983071;28;20105;-72
2022/04/18 05:35:09;;;;;;;6.13;3.63;;;;;;;;;;5002301;28;20058;-71
2022/04/18 05:37:55;;;;;;;9.20;4.00;;;;;;;;;;4990246;28;20470;-75
2022/04/18 05:40:40;;;;;;;7.95;3.95;;;;;;;;;;4983079;28;20073;-70
2022/04/18 05:43:25;;;;;;;8.02;3.92;;;;;;;;;;4986723;28;20026;-71
2022/04/18 05:46:11;;;;;;;8.35;3.70;;;;;;;;;;5000098;28;20123;-70
2022/04/18 05:48:56;;;;;;;4.97;3.40;;;;;;;;;;4985780;28;20422;-71
2022/04/18 05:51:41;;;;;;;5.32;3.60;;;;;;;;;;4977212;28;20522;-70
2022/04/18 05:54:27;;;;;;;6.80;3.80;;;;;;;;;;4995876;28;20018;-70
2022/04/18 05:57:12;;;;;;;8.70;4.15;;;;;;;;;;5002421;28;20049;-68
2022/04/18 05:59:57;;;;;;;5.40;3.75;;;;;;;;;;4996355;28;20030;-68
2022/04/18 06:02:42;;;;;;;6.82;3.80;;;;;;;;;;4989406;28;20042;-71
2022/04/18 06:05:28;;;;;;;5.82;3.42;;;;;;;;;;4983300;28;20030;-69
2022/04/18 06:08:13;;;;;;;6.25;3.90;;;;;;;;;;4995154;28;20396;-68
2022/04/18 06:10:59;;;;;;;5.97;3.58;;;;;;;;;;4983822;28;20026;-69
2022/04/18 06:13:44;;;;;;;6.88;3.58;;;;;;;;;;4976327;28;20029;-70
2022/04/18 06:16:29;;;;;;;7.70;4.03;;;;;;;;;;4970985;28;20069;-72
2022/04/18 06:19:14;;;;;;;8.20;3.65;;;;;;;;;;4969881;28;20057;-68
2022/04/18 06:22:00;;;;;;;5.03;3.30;;;;;;;;;;4975525;28;20057;-68
2022/04/18 06:24:45;;;;;;;6.22;3.53;;;;;;;;;;5006874;28;20029;-68
2022/04/18 06:27:30;;;;;;;6.80;3.38;;;;;;;;;;4988198;28;20450;-70
2022/04/18 06:30:16;;;;;;;6.90;3.40;;;;;;;;;;4989986;28;20117;-69
2022/04/18 06:33:01;;;;;;;5.97;3.58;;;;;;;;;;4970298;28;20062;-69
2022/04/18 06:35:46;;;;;;;6.00;3.30;;;;;;;;;;5002144;28;20015;-69
2022/04/18 06:38:32;;;;;;;4.78;3.00;;;;;;;;;;4961858;28;20027;-72
2022/04/18 06:41:17;;;;;;;4.57;3.13;;;;;;;;;;4989824;28;20022;-71
2022/04/18 06:44:02;;;;;;;4.70;3.15;;;;;;;;;;4988800;28;20394;-73
2022/04/18 06:46:47;;;;;;;5.57;2.88;;;;;;;;;;4983744;28;20030;-71
2022/04/18 06:49:33;;;;;;;5.18;3.20;;;;;;;;;;4998557;28;20125;-71
2022/04/18 06:52:18;;;;;;;5.55;3.22;;;;;;;;;;5000712;28;20022;-68
2022/04/18 06:55:03;;;;;;;5.28;3.78;;;;;;;;;;4975864;28;20034;-72
2022/04/18 06:57:50;;;;;;;7.47;3.83;;;;;;;;;;4985600;28;20026;-71
2022/04/18 07:00:35;;;;;;;4.68;3.30;;;;;;;;;;5002573;28;20080;-72
2022/04/18 07:03:21;;;;;;;5.68;3.33;;;;;;;;;;5001815;28;20378;-73
2022/04/18 07:06:06;;;;;;;5.75;3.10;;;;;;;;;;4989212;28;20101;-73
2022/04/18 07:08:51;;;;;;;4.47;3.05;;;;;;;;;;4974877;28;20039;-73
2022/04/18 07:11:36;;;;;;;7.22;3.38;;;;;;;;;;4984218;28;20077;-69
2022/04/18 07:14:22;;;;;;;6.28;3.45;;;;;;;;;;4984596;28;20092;-70
2022/04/18 07:17:07;;;;;;;6.43;3.30;;;;;;;;;;4988797;28;20080;-69
2022/04/18 07:19:52;;;;;;;5.85;3.28;;;;;;;;;;4976027;28;20055;-69
2022/04/18 07:22:41;;;;;;;7.25;4.03;;;;;;;;;;4980894;28;20088;-70
2022/04/18 07:25:26;;;;;;;5.55;3.55;;;;;;;;;;4992272;28;20060;-68
2022/04/18 07:28:11;;;;;;;7.43;4.18;;;;;;;;;;4998241;28;20521;-68
2022/04/18 07:30:57;;;;;;;6.70;4.18;;;;;;;;;;5000714;28;20033;-68
2022/04/18 07:33:42;;;;;;;7.00;4.20;;;;;;;;;;4975863;28;20101;-73
2022/04/18 07:36:28;;;;;;;6.50;4.18;;;;;;;;;;4975164;28;20033;-75
2022/04/18 07:39:13;;;;;;;7.85;4.00;;;;;;;;;;4997250;28;20030;-72
2022/04/18 07:41:58;;;;;;;7.03;3.92;;;;;;;;;;4992148;28;20557;-73
2022/04/18 07:44:43;;;;;;;6.35;3.63;;;;;;;;;;4991677;28;20045;-72
2022/04/18 07:47:29;;;;;;;6.95;4.18;;;;;;;;;;4990901;28;20433;-69
2022/04/18 07:50:14;;;;;;;5.75;3.70;;;;;;;;;;5003210;28;20377;-72
2022/04/18 07:53:01;;;;;;;10.65;4.90;;;;;;;;;;5005822;28;20033;-70
2022/04/18 07:55:48;;;;;;;6.57;3.83;;;;;;;;;;5006434;28;20355;-71
2022/04/18 07:58:33;;;;;;;5.78;3.92;;;;;;;;;;4979635;28;20037;-71
2022/04/18 08:01:19;;;;;;;5.93;3.75;;;;;;;;;;4991751;28;20438;-71
2022/04/18 08:04:04;;;;;;;6.18;3.95;;;;;;;;;;4991298;28;20045;-73
2022/04/18 08:06:49;;;;;;;5.50;3.38;;;;;;;;;;4979664;28;20027;-71
2022/04/18 08:09:35;;;;;;;5.30;3.40;;;;;;;;;;4991141;28;20746;-71
2022/04/18 08:12:20;;;;;;;6.30;3.50;;;;;;;;;;5005571;28;20026;-72
2022/04/18 08:15:08;;;;;;;6.63;3.53;;;;;;;;;;5005202;28;20033;-71
2022/04/18 08:17:53;;;;;;;5.32;3.35;;;;;;;;;;5004344;28;20075;-71
2022/04/18 08:20:38;;;;;;;5.10;3.28;;;;;;;;;;4975645;28;20494;-72
2022/04/18 08:23:23;;;;;;;5.68;3.38;;;;;;;;;;4985064;28;20435;-71
2022/04/18 08:26:09;;;;;;;5.03;3.20;;;;;;;;;;4993205;28;20085;-72
2022/04/18 08:28:54;;;;;;;4.68;3.42;;;;;;;;;;5001221;28;20703;-71
2022/04/18 08:31:39;;;;;;;3.95;2.90;;;;;;;;;;5017326;28;20621;-73
2022/04/18 08:34:25;;;;;;;5.28;3.28;;;;;;;;;;5010889;28;20104;-72
2022/04/18 08:37:11;;;;;;;4.88;2.95;;;;;;;;;;5009314;28;20025;-72
2022/04/18 08:39:56;;;;;;;6.93;3.08;;;;;;;;;;4974426;28;20039;-73
2022/04/18 08:42:41;;;;;;;6.25;3.05;;;;;;;;;;4998752;28;20074;-77
2022/04/18 08:45:27;;;;;;;5.15;3.08;;;;;;;;;;4985281;28;20032;-73
2022/04/18 08:54:23;;;;;;;5.88;3.53;;;;;;;;;;4983520;28;20034;-75
2022/04/18 08:57:08;;;;;;;6.00;4.30;;;;;;;;;;4990898;28;20026;-73
2022/04/18 08:59:55;;;;;;;5.97;4.00;;;;;;;;;;5010061;28;20044;-73
2022/04/18 09:02:40;;;;;;;7.70;3.85;;;;;;;;;;5010318;28;20042;-76
2022/04/18 09:05:26;;;;;;;6.10;3.53;;;;;;;;;;5003976;28;20041;-78
2022/04/18 09:08:11;;;;;;;5.43;3.05;;;;;;;;;;5003673;28;20660;-77
2022/04/18 09:10:56;;;;;;;5.50;3.60;;;;;;;;;;4984442;28;20266;-76
2022/04/18 09:13:44;;;;;;;5.13;3.47;;;;;;;;;;4997660;28;20037;-80
2022/04/18 09:16:30;;;;;;;7.90;3.67;;;;;;;;;;4989688;28;20038;-79
2022/04/18 09:19:16;;;;;;;5.57;3.47;;;;;;;;;;5005710;28;20061;-70
2022/04/18 09:22:02;;;;;;;5.50;3.40;;;;;;;;;;4990638;28;20053;-76
2022/04/18 09:24:53;;;;;;;6.60;3.50;;;;;;;;;;5009503;28;20508;-75
2022/04/18 09:27:38;;;;;;;5.88;3.35;;;;;;;;;;4995433;28;20034;-76
2022/04/18 09:30:24;;;;;;;4.88;3.60;;;;;;;;;;4964528;28;20027;-76
2022/04/18 09:33:10;;;;;;;7.15;3.78;;;;;;;;;;5000284;28;20381;-78
2022/04/18 09:36:07;;;;;;;6.25;3.85;;;;;;;;;;5009540;28;20040;-77
2022/04/18 09:38:54;;;;;;;4.97;3.35;;;;;;;;;;4998092;28;20027;-70
2022/04/18 09:41:39;;;;;;;6.25;3.13;;;;;;;;;;5007028;28;20032;-77
2022/04/18 09:44:28;;;;;;;6.57;3.38;;;;;;;;;;4980012;28;20038;-80
2022/04/18 09:47:17;;;;;;;4.80;3.00;;;;;;;;;;4990029;28;20030;-76
2022/04/18 09:50:58;;;;;;;5.07;3.40;;;;;;;;;;4964313;28;20037;-78
2022/04/18 09:53:27;;;;;;;4.28;3.08;;;;;;;;;;4984316;28;20046;-79
2022/04/18 09:56:16;;;;;;;4.55;3.63;;;;;;;;;;5015063;28;20109;-72
2022/04/18 09:59:01;;;;;;;7.30;3.30;;;;;;;;;;4992427;28;20026;-75
2022/04/18 10:01:47;;;;;;;6.20;3.10;;;;;;;;;;4984492;28;20034;-75
2022/04/18 10:04:34;;;;;;;7.25;3.72;;;;;;;;;;4981709;28;20026;-75
2022/04/18 10:07:20;;;;;;;6.80;3.80;;;;;;;;;;4975855;28;20026;-76
2022/04/18 10:10:05;;;;;;;8.20;3.58;;;;;;;;;;4989419;28;20044;-75
2022/04/18 10:12:51;;;;;;;4.85;2.97;;;;;;;;;;5002631;28;20516;-78
2022/04/18 10:15:36;;;;;;;5.70;3.00;;;;;;;;;;4988242;28;20129;-71
2022/04/18 10:18:22;;;;;;;5.47;3.10;;;;;;;;;;4999534;28;20058;-69
2022/04/18 10:21:25;;;;;;;8.07;3.72;;;;;;;;;;4978519;28;20038;-70
2022/04/18 10:24:20;;;;;;;6.28;3.35;;;;;;;;;;5010816;28;20076;-70
2022/04/18 10:27:24;;;;;;;6.95;3.70;;;;;;;;;;4984853;28;20030;-68
2022/04/18 10:30:11;;;;;;;5.72;3.60;;;;;;;;;;5007921;28;20022;-68
2022/04/18 10:32:56;;;;;;;4.18;3.17;;;;;;;;;;4995814;28;20052;-73
2022/04/18 10:35:52;;;;;;;6.47;3.50;;;;;;;;;;4997749;28;20030;-72
2022/04/18 10:38:37;;;;;;;5.53;3.90;;;;;;;;;;4970626;28;20450;-74
2022/04/18 10:41:33;;;;;;;4.68;3.33;;;;;;;;;;5002703;28;20034;-71
2022/04/18 10:44:19;;;;;;;5.80;3.25;;;;;;;;;;4989430;28;20097;-71
2022/04/18 10:47:04;;;;;;;6.20;3.63;;;;;;;;;;4996490;28;20034;-71
2022/04/18 10:50:08;;;;;;;9.30;5.00;;;;;;;;;;4988824;28;20022;-72
2022/04/18 10:53:13;;;;;;;6.38;3.60;;;;;;;;;;5022528;28;20156;-70
2022/04/18 10:55:58;;;;;;;7.35;3.78;;;;;;;;;;4997887;28;20030;-74
2022/04/18 10:58:48;;;;;;;6.57;3.58;;;;;;;;;;4966371;28;20042;-73
2022/04/18 11:01:33;;;;;;;;;;;;;;;;;;4989740;28;20113;-72
2022/04/18 11:04:23;;;;;;;5.25;3.58;;;;;;;;;;4986841;28;20012;-73
2022/04/18 11:07:09;;;;;;;5.43;3.38;;;;;;;;;;4995059;28;20040;-72
2022/04/18 11:09:54;;;;;;;8.23;4.07;;;;;;;;;;5012268;28;20069;-72
2022/04/18 11:12:43;;;;;;;6.10;3.90;;;;;;;;;;4995822;28;20478;-74
2022/04/18 11:15:28;;;;;;;6.78;3.25;;;;;;;;;;4996582;28;20031;-72
2022/04/18 11:18:26;;;;;;;8.38;4.03;;;;;;;;;;4990115;28;20027;-71
2022/04/18 11:21:12;;;;;;;8.75;4.03;;;;;;;;;;4981952;28;20047;-72
2022/04/18 11:24:16;;;;;;;5.95;3.30;;;;;;;;;;4981817;28;20026;-74
2022/04/18 11:27:01;;;;;;;5.15;3.47;;;;;;;;;;4988832;28;20027;-73
2022/04/18 11:29:54;;;;;;;5.32;3.42;;;;;;;;;;4992173;28;20338;-72
2022/04/18 11:32:45;;;;;;;5.70;3.33;;;;;;;;;;5005097;28;20181;-72
2022/04/18 11:35:31;;;;;;;5.22;3.47;;;;;;;;;;4977948;28;20034;-68
2022/04/18 11:38:16;;;;;;;7.15;3.47;;;;;;;;;;5000834;28;20409;-72
2022/04/18 11:41:14;;;;;;;5.03;3.47;;;;;;;;;;4972450;28;20074;-71
2022/04/18 11:44:00;;;;;;;6.50;3.35;;;;;;;;;;5001460;28;20444;-67
2022/04/18 11:46:46;;;;;;;6.18;4.07;;;;;;;;;;4973801;28;20114;-73
2022/04/18 11:49:33;;;;;;;4.60;3.15;;;;;;;;;;5003639;28;20057;-75
2022/04/18 11:52:18;;;;;;;6.57;3.75;;;;;;;;;;4992348;28;20477;-65
2022/04/18 11:55:07;;;;;;;7.90;3.42;;;;;;;;;;4978686;28;20108;-67
2022/04/18 11:57:52;;;;;;;4.00;2.83;;;;;;;;;;4999282;28;20034;-69
2022/04/18 12:06:52;;;;;;;3.72;2.92;;;;;;;;;;4998870;28;20381;-67
2022/04/18 12:09:40;;;;;;;5.05;3.10;;;;;;;;;;4985262;28;20171;-57
2022/04/18 12:12:27;;;;;;;6.18;3.13;;;;;;;;;;4991410;28;20022;-59
2022/04/18 12:15:13;;;;;;;4.63;2.85;;;;;;;;;;5003203;28;20497;-58
2022/04/18 12:18:06;;;;;;;4.78;2.97;;;;;;;;;;5010964;28;20496;-58
2022/04/18 12:20:51;;;;;;;6.57;3.28;;;;;;;;;;5001365;28;20047;-58
2022/04/18 12:23:37;;;;;;;6.63;3.35;;;;;;;;;;4997113;28;20073;-67
2022/04/18 12:26:26;;;;;;;4.60;2.90;;;;;;;;;;4996596;28;20048;-64
2022/04/18 12:29:11;;;;;;;;;;;;;;;;;;4980411;28;20029;-64
2022/04/18 12:31:59;;;;;;;5.68;3.78;;;;;;;;;;4997083;28;19964;-62
2022/04/18 12:34:44;;;;;;;4.80;3.05;;;;;;;;;;4995722;28;20051;-65
2022/04/18 12:37:30;;;;;;;5.82;3.05;;;;;;;;;;4998408;28;20045;-64
2022/04/18 12:40:19;;;;;;;5.15;2.80;;;;;;;;;;4985061;28;20030;-66
2022/04/18 12:43:06;;;;;;;5.20;2.90;;;;;;;;;;4990783;28;20023;-68
2022/04/18 12:45:52;;;;;;;4.78;3.08;;;;;;;;;;4989264;28;20034;-67
2022/04/18 12:48:38;;;;;;;3.72;2.55;;;;;;;;;;4972192;28;20030;-66
2022/04/18 12:51:31;;;;;;;4.78;3.17;;;;;;;;;;4971546;28;20089;-66
2022/04/18 12:54:20;;;;;;;6.60;4.35;;;;;;;;;;4988232;28;20035;-69
2022/04/18 12:57:17;;;;;;;8.20;6.63;;;;;;;;;;5002247;28;20053;-70
2022/04/18 13:00:14;;;;;;;4.90;3.22;;;;;;;;;;4993894;28;20048;-69
2022/04/18 13:02:59;;;;;;;6.15;2.88;;;;;;;;;;4988712;28;20022;-64
2022/04/18 13:05:46;;;;;;;10.00;3.55;;;;;;;;;;4987341;28;20084;-68
2022/04/18 13:08:35;;;;;;;4.88;3.15;;;;;;;;;;4991703;28;20109;-65
2022/04/18 13:11:20;;;;;;;7.20;3.50;;;;;;;;;;4990658;28;20022;-64
2022/04/18 13:14:06;;;;;;;5.13;3.03;;;;;;;;;;4985973;28;20447;-65
2022/04/18 13:17:03;;;;;;;5.35;2.75;;;;;;;;;;4981824;28;20030;-66
2022/04/18 13:19:48;;;;;;;6.18;3.25;;;;;;;;;;5003392;28;20449;-70
2022/04/18 13:22:35;;;;;;;5.70;3.00;;;;;;;;;;4999852;28;20548;-68
2022/04/18 13:25:20;;;;;;;8.55;3.70;;;;;;;;;;4993133;28;20670;-68
2022/04/18 13:28:09;;;;;;;4.43;2.97;;;;;;;;;;4994091;28;20038;-69
2022/04/18 13:30:54;;;;;;;5.43;3.00;;;;;;;;;;4957205;28;20423;-65
2022/04/18 13:33:39;;;;;;;7.15;3.33;;;;;;;;;;4996859;28;20076;-65
2022/04/18 13:36:33;;;;;;;3.45;2.50;;;;;;;;;;4990038;28;20026;-68
2022/04/18 13:39:18;;;;;;;4.13;3.10;;;;;;;;;;4970533;28;20034;-65
2022/04/18 13:42:03;;;;;;;7.03;2.92;;;;;;;;;;4973160;28;20689;-65
2022/04/18 13:44:48;;;;;;;4.53;2.70;;;;;;;;;;4975736;28;20030;-62
2022/04/18 13:47:38;;;;;;;5.35;2.97;;;;;;;;;;4975562;28;20382;-64
2022/04/18 13:50:23;;;;;;;7.22;3.78;;;;;;;;;;4970202;28;20113;-61
2022/04/18 13:53:09;;;;;;;4.93;2.70;;;;;;;;;;4988958;28;20042;-62
2022/04/18 13:55:54;;;;;;;3.90;2.53;;;;;;;;;;4979887;28;20022;-59
2022/04/18 13:58:40;;;;;;;4.55;2.65;;;;;;;;;;4993062;28;20042;-56
2022/04/18 14:01:25;;;;;;;6.53;2.55;;;;;;;;;;4988938;28;20385;-55
2022/04/18 14:04:10;;;;;;;4.35;2.75;;;;;;;;;;4984957;28;20119;-59
2022/04/18 14:06:56;;;;;;;5.03;2.85;;;;;;;;;;4997112;28;20026;-57
2022/04/18 14:09:42;;;;;;;5.88;2.72;;;;;;;;;;4998066;28;20018;-62
2022/04/18 14:12:27;;;;;;;5.13;3.08;;;;;;;;;;4995447;28;20026;-57
2022/04/18 14:21:20;;;;;;;3.65;2.38;;;;;;;;;;4989849;28;20038;-58
2022/04/18 14:24:06;;;;;;;5.30;2.85;;;;;;;;;;4978957;28;20031;-60
2022/04/18 14:26:51;;;;;;;4.25;2.53;;;;;;;;;;4978138;28;20034;-56
2022/04/18 14:29:37;;;;;;;5.70;3.03;;;;;;;;;;4988133;28;20427;-58
2022/04/18 14:32:22;;;;;;;3.55;2.35;;;;;;;;;;4996448;28;20030;-65
2022/04/18 14:35:08;;;;;;;8.43;2.30;;;;;;;;;;4982870;28;20023;-59
2022/04/18 14:37:53;;;;;;;4.05;2.38;;;;;;;;;;4997950;28;20050;-63
2022/04/18 14:40:38;;;;;;;4.38;2.30;;;;;;;;;;5000123;28;20206;-61
2022/04/18 14:43:24;;;;;;;4.30;2.58;;;;;;;;;;4986991;28;20101;-61
2022/04/18 14:46:09;;;;;;;3.42;2.50;;;;;;;;;;5002027;28;20089;-59
2022/04/18 14:48:55;;;;;;;3.33;2.20;;;;;;;;;;4986038;28;20441;-60
2022/04/18 14:51:40;;;;;;;5.78;2.65;;;;;;;;;;5000731;28;20180;-61
2022/04/18 14:54:25;;;;;;;6.05;2.67;;;;;;;;;;5003616;28;20041;-60
2022/04/18 14:57:11;;;;;;;3.75;2.60;;;;;;;;;;4990456;28;20030;-60
2022/04/18 14:59:57;;;;;;;4.40;2.67;;;;;;;;;;5001847;28;20037;-60
2022/04/18 15:02:44;;;;;;;4.10;2.22;;;;;;;;;;4988233;28;20086;-60
2022/04/18 15:05:29;;;;;;;3.22;2.40;;;;;;;;;;5008266;28;20030;-63
2022/04/18 15:08:14;;;;;;;3.47;2.10;;;;;;;;;;4991220;28;20022;-61
2022/04/18 15:10:59;;;;;;;5.88;2.35;;;;;;;;;;5003769;28;20038;-59
2022/04/18 15:13:44;;;;;;;6.95;2.78;;;;;;;;;;5001455;28;20933;-63
2022/04/18 15:16:30;;;;;;;4.40;2.53;;;;;;;;;;5002757;28;20052;-61
2022/04/18 15:19:15;;;;;;;5.07;2.72;;;;;;;;;;4990256;28;20050;-62
2022/04/18 15:22:01;;;;;;;4.53;2.55;;;;;;;;;;5018275;28;20071;-63
2022/04/18 15:24:47;;;;;;;3.53;2.50;;;;;;;;;;4990016;28;20026;-63
2022/04/18 15:27:32;;;;;;;7.28;2.47;;;;;;;;;;4992811;28;21113;-62
2022/04/18 15:33:22;;;;;;;4.20;2.55;;;;;;;;;;4985215;28;20398;-64
2022/04/18 15:36:07;;;;;;;4.97;2.75;;;;;;;;;;4999581;28;20101;-61
2022/04/18 15:38:52;;;;;;;3.88;2.85;;;;;;;;;;4989683;28;20027;-59
2022/04/18 15:41:37;;;;;;;2.78;2.13;;;;;;;;;;4998634;28;20030;-61
2022/04/18 15:44:23;;;;;;;5.00;2.50;;;;;;;;;;4998024;28;20536;-61
2022/04/18 15:47:08;;;;;;;3.22;2.28;;;;;;;;;;4984673;28;20080;-55
2022/04/18 15:49:54;;;;;;;5.25;2.50;;;;;;;;;;4979092;28;20398;-60
2022/04/18 15:52:39;;;;;;;4.50;2.40;;;;;;;;;;4992023;28;20023;-59
2022/04/18 15:55:24;;;;;;;3.72;2.58;;;;;;;;;;4999006;28;20446;-61
2022/04/18 15:58:10;;;;;;;10.70;2.60;;;;;;;;;;4978098;28;20038;-58
2022/04/18 16:00:55;;;;;;;3.92;1.95;;;;;;;;;;4997048;28;20434;-60
2022/04/18 16:03:42;;;;;;;5.35;2.70;;;;;;;;;;4995150;28;20084;-59
2022/04/18 16:06:27;;;;;;;6.43;3.10;;;;;;;;;;4979701;28;20049;-59
2022/04/18 16:09:13;;;;;;;6.93;2.58;;;;;;;;;;4986432;28;20097;-59
2022/04/18 16:11:58;;;;;;;4.00;2.40;;;;;;;;;;4996958;28;20391;-60
2022/04/18 16:14:43;;;;;;;3.88;2.00;;;;;;;;;;5001183;28;20060;-58
2022/04/18 16:17:28;;;;;;;7.30;3.13;;;;;;;;;;4998879;28;20061;-59
2022/04/18 16:20:16;;;;;;;7.75;4.65;;;;;;;;;;5000428;28;20056;-62
2022/04/18 16:23:02;;;;;;;6.40;3.05;;;;;;;;;;4973419;28;20078;-62
2022/04/18 16:25:47;;;;;;;5.82;2.63;;;;;;;;;;4972912;28;20034;-61
2022/04/18 16:28:33;;;;;;;3.47;2.45;;;;;;;;;;4999616;28;20030;-64
2022/04/18 16:34:24;;;;;;;4.70;2.72;;;;;;;;;;4995724;28;20042;-60
2022/04/18 16:37:10;;;;;;;7.05;2.72;;;;;;;;;;4999354;28;20057;-60
2022/04/18 16:39:55;;;;;;;3.20;2.20;;;;;;;;;;4985745;28;20096;-61
2022/04/18 16:46:01;;;;;;;4.47;2.28;;;;;;;;;;4945539;28;20474;-58
2022/04/18 16:48:46;;;;;;;6.38;3.47;;;;;;;;;;4971562;28;20513;-66
2022/04/18 16:51:35;;;;;;;5.50;2.15;;;;;;;;;;4995737;28;20027;-61
2022/04/18 16:54:20;;;;;;;11.55;5.72;;;;;;;;;;4987170;28;20482;-60
2022/04/18 16:57:06;;;;;;;3.20;2.28;;;;;;;;;;4983819;28;20053;-59
2022/04/18 16:59:51;;;;;;;3.50;2.30;;;;;;;;;;4996847;28;20030;-57
2022/04/18 17:02:38;;;;;;;3.08;2.33;;;;;;;;;;4996142;28;20018;-63
2022/04/18 17:05:23;;;;;;;7.22;2.17;;;;;;;;;;4979912;28;20295;-64
2022/04/18 17:08:08;;;;;;;6.43;2.60;;;;;;;;;;4978921;28;20466;-66
2022/04/18 17:10:54;;;;;;;3.28;2.10;;;;;;;;;;4985351;28;20042;-62
2022/04/18 17:13:39;;;;;;;3.13;2.00;;;;;;;;;;4995069;28;20038;-63
2022/04/18 17:16:26;;;;;;;4.78;2.45;;;;;;;;;;4994200;28;20105;-63
2022/04/18 17:19:12;;;;;;;3.95;2.33;;;;;;;;;;4970642;28;20046;-58
2022/04/18 17:21:58;;;;;;;4.55;2.22;;;;;;;;;;4995175;28;20026;-63